createdAt,value
2023-04-26T00:00:35.673Z,10.2432251
2023-04-26T00:01:36.647Z,10.2432251
2023-04-26T00:02:38.417Z,10.20294189
2023-04-26T00:03:40.274Z,10.18280029
2023-04-26T00:04:41.073Z,10.18280029
2023-04-26T00:05:42.672Z,10.16265869
2023-04-26T00:06:45.229Z,10.09216309
2023-04-26T00:07:47.200Z,10.04180908
2023-04-26T00:08:48.775Z,9.961242676
2023-04-26T00:09:50.144Z,9.931030273
2023-04-26T00:10:51.629Z,9.931030273
2023-04-26T00:11:53.173Z,9.931030273
2023-04-26T00:12:55.217Z,9.920959473
2023-04-26T00:13:56.683Z,9.89074707
2023-04-26T00:14:58.250Z,9.850463867
2023-04-26T00:15:59.183Z,9.830322266
2023-04-26T00:17:01.100Z,9.810180664
2023-04-26T00:18:33.140Z,9.800109863
2023-04-26T00:19:34.522Z,9.800109863
2023-04-26T00:20:36.249Z,9.800109863
2023-04-26T00:21:37.652Z,9.800109863
2023-04-26T00:22:39.256Z,9.779968262
2023-04-26T00:23:41.174Z,9.769897461
2023-04-26T00:24:42.557Z,9.739685059
2023-04-26T00:25:44.672Z,9.739685059
2023-04-26T00:26:46.223Z,9.739685059
2023-04-26T00:27:47.336Z,9.709472656
2023-04-26T00:28:50.446Z,9.699401855
2023-04-26T00:29:51.651Z,9.679260254
2023-04-26T00:30:53.152Z,9.699401855
2023-04-26T00:31:54.689Z,9.699401855
2023-04-26T00:32:55.690Z,9.709472656
2023-04-26T00:33:57.281Z,9.739685059
2023-04-26T00:34:59.463Z,9.779968262
2023-04-26T00:36:01.703Z,9.779968262
2023-04-26T00:37:33.700Z,9.779968262
2023-04-26T00:38:35.160Z,9.800109863
2023-04-26T00:39:36.691Z,9.769897461
2023-04-26T00:40:38.014Z,9.749755859
2023-04-26T00:41:39.919Z,9.749755859
2023-04-26T00:42:41.627Z,9.679260254
2023-04-26T00:43:43.159Z,9.62890625
2023-04-26T00:44:45.020Z,9.588623047
2023-04-26T00:45:46.586Z,9.558410645
2023-04-26T00:46:49.214Z,9.618835449
2023-04-26T00:47:50.730Z,9.669189453
2023-04-26T00:48:52.386Z,9.62890625
2023-04-26T00:49:53.004Z,9.588623047
2023-04-26T00:50:54.544Z,9.518127441
2023-04-26T00:51:56.109Z,9.487915039
2023-04-26T00:52:57.724Z,9.487915039
2023-04-26T00:53:59.676Z,9.487915039
2023-04-26T00:55:32.114Z,9.487915039
2023-04-26T00:56:33.042Z,9.528198242
2023-04-26T00:57:34.667Z,9.548339844
2023-04-26T00:58:36.225Z,9.447631836
2023-04-26T00:59:37.722Z,9.37713623
2023-04-26T01:00:39.662Z,9.306640625
2023-04-26T01:01:40.829Z,9.266357422
2023-04-26T01:02:42.306Z,9.185791016
2023-04-26T01:03:43.943Z,9.195861816
2023-04-26T01:04:45.159Z,9.165649414
2023-04-26T01:05:46.620Z,9.155578613
2023-04-26T01:06:48.209Z,9.165649414
2023-04-26T01:07:49.697Z,9.195861816
2023-04-26T01:08:51.412Z,9.226074219
2023-04-26T01:09:52.646Z,9.256286621
2023-04-26T01:10:54.115Z,9.296569824
2023-04-26T01:11:55.671Z,9.336853027
2023-04-26T01:12:57.214Z,9.256286621
2023-04-26T01:13:58.651Z,9.266357422
2023-04-26T01:15:00.195Z,9.296569824
2023-04-26T01:16:32.198Z,9.256286621
2023-04-26T01:17:33.760Z,9.256286621
2023-04-26T01:18:35.649Z,9.296569824
2023-04-26T01:19:37.098Z,9.23614502
2023-04-26T01:20:38.698Z,9.216003418
2023-04-26T01:21:40.133Z,9.216003418
2023-04-26T01:22:41.660Z,9.216003418
2023-04-26T01:23:43.229Z,9.23614502
2023-04-26T01:24:45.110Z,9.256286621
2023-04-26T01:25:47.140Z,9.226074219
2023-04-26T01:26:48.795Z,9.226074219
2023-04-26T01:27:50.172Z,9.195861816
2023-04-26T01:28:51.937Z,9.185791016
2023-04-26T01:29:53.202Z,9.195861816
2023-04-26T01:30:54.700Z,9.195861816
2023-04-26T01:31:56.139Z,9.145507813
2023-04-26T01:32:57.085Z,9.145507813
2023-04-26T01:33:58.668Z,9.226074219
2023-04-26T01:35:00.164Z,9.195861816
2023-04-26T01:36:32.063Z,9.125366211
2023-04-26T01:37:33.640Z,9.064941406
2023-04-26T01:38:35.154Z,9.014587402
2023-04-26T01:39:36.739Z,8.934020996
2023-04-26T01:40:38.044Z,8.883666992
2023-04-26T01:41:39.552Z,8.913879395
2023-04-26T01:42:41.190Z,8.913879395
2023-04-26T01:43:42.669Z,8.883666992
2023-04-26T01:44:43.987Z,8.893737793
2023-04-26T01:45:45.591Z,8.934020996
2023-04-26T01:46:47.198Z,8.934020996
2023-04-26T01:47:48.676Z,8.944091797
2023-04-26T01:48:50.531Z,8.934020996
2023-04-26T01:49:52.165Z,8.944091797
2023-04-26T01:50:53.678Z,8.964233398
2023-04-26T01:51:55.626Z,8.974304199
2023-04-26T01:52:57.214Z,8.964233398
2023-04-26T01:53:59.079Z,8.85345459
2023-04-26T01:55:31.634Z,8.803100586
2023-04-26T01:56:33.022Z,8.793029785
2023-04-26T01:57:34.512Z,8.752746582
2023-04-26T01:58:36.166Z,8.652038574
2023-04-26T01:59:37.667Z,8.60168457
2023-04-26T02:00:38.858Z,8.581542969
2023-04-26T02:01:41.028Z,8.60168457
2023-04-26T02:02:43.276Z,8.641967773
2023-04-26T02:03:45.161Z,8.652038574
2023-04-26T02:04:46.724Z,8.581542969
2023-04-26T02:05:48.250Z,8.541259766
2023-04-26T02:06:49.690Z,8.571472168
2023-04-26T02:07:51.130Z,8.581542969
2023-04-26T02:08:53.017Z,8.571472168
2023-04-26T02:09:54.661Z,8.571472168
2023-04-26T02:10:56.193Z,8.581542969
2023-04-26T02:11:58.345Z,8.631896973
2023-04-26T02:13:00.784Z,8.672180176
2023-04-26T02:14:33.255Z,8.712463379
2023-04-26T02:15:35.287Z,8.712463379
2023-04-26T02:16:37.204Z,8.672180176
2023-04-26T02:17:38.754Z,8.652038574
2023-04-26T02:18:39.578Z,8.631896973
2023-04-26T02:19:41.170Z,8.652038574
2023-04-26T02:20:43.016Z,8.652038574
2023-04-26T02:21:45.222Z,8.641967773
2023-04-26T02:22:47.303Z,8.631896973
2023-04-26T02:23:49.196Z,8.652038574
2023-04-26T02:24:51.236Z,8.682250977
2023-04-26T02:25:53.191Z,8.682250977
2023-04-26T02:26:55.254Z,8.702392578
2023-04-26T02:27:56.664Z,8.73260498
2023-04-26T02:28:58.128Z,8.712463379
2023-04-26T02:30:00.274Z,8.782958984
2023-04-26T02:31:32.705Z,8.73260498
2023-04-26T02:32:34.305Z,8.702392578
2023-04-26T02:33:36.147Z,8.682250977
2023-04-26T02:34:37.670Z,8.652038574
2023-04-26T02:35:38.693Z,8.631896973
2023-04-26T02:36:40.101Z,8.631896973
2023-04-26T02:37:41.602Z,8.60168457
2023-04-26T02:38:43.155Z,8.551330566
2023-04-26T02:39:45.672Z,8.521118164
2023-04-26T02:40:47.161Z,8.500976563
2023-04-26T02:41:48.647Z,8.500976563
2023-04-26T02:42:50.173Z,8.521118164
2023-04-26T02:43:51.656Z,8.490905762
2023-04-26T02:44:53.376Z,8.500976563
2023-04-26T02:45:55.141Z,8.541259766
2023-04-26T02:46:56.670Z,8.571472168
2023-04-26T02:47:58.259Z,8.521118164
2023-04-26T02:49:30.557Z,8.490905762
2023-04-26T02:50:32.298Z,8.450622559
2023-04-26T02:51:33.678Z,8.420410156
2023-04-26T02:52:35.151Z,8.390197754
2023-04-26T02:53:36.677Z,8.430480957
2023-04-26T02:54:38.193Z,8.460693359
2023-04-26T02:55:39.632Z,8.430480957
2023-04-26T02:56:41.595Z,8.450622559
2023-04-26T02:57:43.060Z,8.450622559
2023-04-26T02:58:44.629Z,8.500976563
2023-04-26T02:59:46.033Z,8.541259766
2023-04-26T03:00:47.723Z,8.541259766
2023-04-26T03:01:48.539Z,8.551330566
2023-04-26T03:02:50.213Z,8.490905762
2023-04-26T03:03:51.731Z,8.450622559
2023-04-26T03:04:53.660Z,8.430480957
2023-04-26T03:05:55.146Z,8.430480957
2023-04-26T03:06:56.041Z,8.400268555
2023-04-26T03:07:57.560Z,8.319702148
2023-04-26T03:09:30.710Z,8.289489746
2023-04-26T03:10:32.059Z,8.279418945
2023-04-26T03:11:33.525Z,8.269348145
2023-04-26T03:12:35.036Z,8.239135742
2023-04-26T03:13:36.583Z,8.279418945
2023-04-26T03:14:38.173Z,8.279418945
2023-04-26T03:15:39.719Z,8.309631348
2023-04-26T03:16:41.508Z,8.370056152
2023-04-26T03:17:43.216Z,8.370056152
2023-04-26T03:18:45.150Z,8.390197754
2023-04-26T03:19:46.648Z,8.390197754
2023-04-26T03:20:48.146Z,8.359985352
2023-04-26T03:21:49.631Z,8.33984375
2023-04-26T03:22:51.147Z,8.370056152
2023-04-26T03:23:52.122Z,8.390197754
2023-04-26T03:24:53.733Z,8.390197754
2023-04-26T03:25:55.108Z,8.370056152
2023-04-26T03:26:56.732Z,8.319702148
2023-04-26T03:27:58.160Z,8.279418945
2023-04-26T03:29:30.297Z,8.249206543
2023-04-26T03:30:32.090Z,8.309631348
2023-04-26T03:31:33.672Z,8.289489746
2023-04-26T03:32:35.219Z,8.269348145
2023-04-26T03:33:36.676Z,8.218994141
2023-04-26T03:34:38.800Z,8.198852539
2023-04-26T03:35:40.171Z,8.198852539
2023-04-26T03:36:41.703Z,8.178710938
2023-04-26T03:37:43.347Z,8.168640137
2023-04-26T03:38:45.633Z,8.138427734
2023-04-26T03:39:47.168Z,8.098144531
2023-04-26T03:40:48.696Z,8.057861328
2023-04-26T03:41:50.223Z,7.997436523
2023-04-26T03:42:51.653Z,7.987365723
2023-04-26T03:43:53.177Z,7.997436523
2023-04-26T03:44:54.762Z,8.017578125
2023-04-26T03:45:56.227Z,8.017578125
2023-04-26T03:46:57.819Z,8.057861328
2023-04-26T03:48:30.191Z,8.037719727
2023-04-26T03:49:31.682Z,8.067932129
2023-04-26T03:50:33.198Z,8.098144531
2023-04-26T03:51:34.629Z,8.118286133
2023-04-26T03:52:36.166Z,8.128356934
2023-04-26T03:53:38.209Z,8.08807373
2023-04-26T03:54:39.647Z,8.057861328
2023-04-26T03:55:41.698Z,8.067932129
2023-04-26T03:56:43.253Z,8.037719727
2023-04-26T03:57:45.108Z,8.017578125
2023-04-26T03:58:46.649Z,8.017578125
2023-04-26T03:59:48.134Z,8.067932129
2023-04-26T04:00:50.673Z,8.067932129
2023-04-26T04:01:52.301Z,8.098144531
2023-04-26T04:02:53.254Z,8.118286133
2023-04-26T04:03:54.868Z,8.067932129
2023-04-26T04:04:57.360Z,8.017578125
2023-04-26T04:06:29.688Z,8.017578125
2023-04-26T04:07:31.199Z,8.098144531
2023-04-26T04:08:33.076Z,8.168640137
2023-04-26T04:09:34.645Z,8.128356934
2023-04-26T04:10:36.680Z,8.067932129
2023-04-26T04:11:38.215Z,8.067932129
2023-04-26T04:12:40.128Z,8.057861328
2023-04-26T04:13:41.604Z,8.017578125
2023-04-26T04:14:43.186Z,8.057861328
2023-04-26T04:15:45.122Z,8.067932129
2023-04-26T04:16:46.657Z,8.067932129
2023-04-26T04:17:48.299Z,8.057861328
2023-04-26T04:18:50.760Z,8.098144531
2023-04-26T04:19:52.098Z,8.138427734
2023-04-26T04:20:53.689Z,8.08807373
2023-04-26T04:21:56.164Z,8.08807373
2023-04-26T04:22:57.753Z,8.017578125
2023-04-26T04:24:30.180Z,7.987365723
2023-04-26T04:25:31.650Z,7.987365723
2023-04-26T04:26:33.407Z,7.94708252
2023-04-26T04:27:35.213Z,7.94708252
2023-04-26T04:28:36.388Z,7.937011719
2023-04-26T04:29:37.343Z,7.906799316
2023-04-26T04:30:39.202Z,7.94708252
2023-04-26T04:31:40.353Z,8.027648926
2023-04-26T04:32:41.670Z,8.067932129
2023-04-26T04:33:43.158Z,8.118286133
2023-04-26T04:34:45.474Z,8.168640137
2023-04-26T04:35:46.676Z,8.168640137
2023-04-26T04:36:48.208Z,8.098144531
2023-04-26T04:37:49.720Z,8.08807373
2023-04-26T04:38:51.928Z,8.067932129
2023-04-26T04:39:53.180Z,8.098144531
2023-04-26T04:40:54.622Z,8.08807373
2023-04-26T04:41:56.674Z,8.098144531
2023-04-26T04:42:58.745Z,8.067932129
2023-04-26T04:44:31.158Z,8.017578125
2023-04-26T04:45:32.697Z,8.057861328
2023-04-26T04:46:34.774Z,8.178710938
2023-04-26T04:47:36.268Z,8.168640137
2023-04-26T04:48:38.148Z,8.198852539
2023-04-26T04:49:39.804Z,8.198852539
2023-04-26T04:50:41.625Z,8.198852539
2023-04-26T04:51:43.162Z,8.138427734
2023-04-26T04:52:44.611Z,8.198852539
2023-04-26T04:53:46.184Z,8.168640137
2023-04-26T04:54:47.730Z,8.168640137
2023-04-26T04:55:49.700Z,8.178710938
2023-04-26T04:56:51.652Z,8.168640137
2023-04-26T04:57:53.170Z,8.218994141
2023-04-26T04:58:54.794Z,8.20892334
2023-04-26T04:59:56.235Z,8.198852539
2023-04-26T05:00:57.109Z,8.269348145
2023-04-26T05:02:29.764Z,8.279418945
2023-04-26T05:03:31.389Z,8.269348145
2023-04-26T05:04:33.403Z,8.239135742
2023-04-26T05:05:34.978Z,8.20892334
2023-04-26T05:06:36.622Z,8.178710938
2023-04-26T05:07:38.292Z,8.198852539
2023-04-26T05:08:40.713Z,8.178710938
2023-04-26T05:09:42.590Z,8.178710938
2023-04-26T05:10:44.390Z,8.198852539
2023-04-26T05:11:46.176Z,8.198852539
2023-04-26T05:12:47.580Z,8.198852539
2023-04-26T05:13:51.573Z,8.198852539
2023-04-26T05:14:51.445Z,8.178710938
2023-04-26T05:15:53.212Z,8.20892334
2023-04-26T05:16:54.862Z,8.269348145
2023-04-26T05:17:56.250Z,8.249206543
2023-04-26T05:18:57.657Z,8.20892334
2023-04-26T05:20:29.732Z,8.20892334
2023-04-26T05:21:31.167Z,8.198852539
2023-04-26T05:22:32.776Z,8.218994141
2023-04-26T05:23:34.636Z,8.239135742
2023-04-26T05:24:36.178Z,8.279418945
2023-04-26T05:25:37.724Z,8.289489746
2023-04-26T05:26:39.238Z,8.309631348
2023-04-26T05:27:40.760Z,8.289489746
2023-04-26T05:28:42.863Z,8.279418945
2023-04-26T05:29:44.617Z,8.319702148
2023-04-26T05:30:47.197Z,8.370056152
2023-04-26T05:31:48.353Z,8.450622559
2023-04-26T05:32:50.293Z,8.500976563
2023-04-26T05:33:52.500Z,8.460693359
2023-04-26T05:34:54.170Z,8.460693359
2023-04-26T05:35:55.754Z,8.47076416
2023-04-26T05:36:57.760Z,8.571472168
2023-04-26T05:38:30.287Z,8.60168457
2023-04-26T05:39:32.095Z,8.60168457
2023-04-26T05:40:33.688Z,8.571472168
2023-04-26T05:41:35.222Z,8.60168457
2023-04-26T05:42:37.344Z,8.641967773
2023-04-26T05:43:39.249Z,8.631896973
2023-04-26T05:44:41.104Z,8.641967773
2023-04-26T05:45:42.702Z,8.611755371
2023-04-26T05:46:44.287Z,8.652038574
2023-04-26T05:47:46.380Z,8.672180176
2023-04-26T05:48:48.285Z,8.702392578
2023-04-26T05:49:51.648Z,8.702392578
2023-04-26T05:50:53.269Z,8.702392578
2023-04-26T05:51:55.258Z,8.672180176
2023-04-26T05:52:57.325Z,8.672180176
2023-04-26T05:54:29.688Z,8.611755371
2023-04-26T05:55:31.260Z,8.60168457
2023-04-26T05:56:32.177Z,8.571472168
2023-04-26T05:57:33.731Z,8.581542969
2023-04-26T05:58:35.807Z,8.611755371
2023-04-26T05:59:37.698Z,8.631896973
2023-04-26T06:00:39.131Z,8.652038574
2023-04-26T06:01:40.721Z,8.672180176
2023-04-26T06:02:43.024Z,8.672180176
2023-04-26T06:03:45.820Z,8.712463379
2023-04-26T06:04:47.445Z,8.712463379
2023-04-26T06:05:49.307Z,8.682250977
2023-04-26T06:06:50.664Z,8.712463379
2023-04-26T06:07:52.717Z,8.793029785
2023-04-26T06:08:54.294Z,8.863525391
2023-04-26T06:09:56.232Z,8.863525391
2023-04-26T06:11:28.685Z,8.893737793
2023-04-26T06:12:30.286Z,8.944091797
2023-04-26T06:13:32.413Z,8.964233398
2023-04-26T06:14:34.530Z,8.934020996
2023-04-26T06:15:36.151Z,8.964233398
2023-04-26T06:16:37.108Z,8.984375
2023-04-26T06:17:39.251Z,9.004516602
2023-04-26T06:18:41.403Z,9.004516602
2023-04-26T06:19:43.996Z,9.044799805
2023-04-26T06:20:45.660Z,9.044799805
2023-04-26T06:21:47.384Z,9.064941406
2023-04-26T06:22:49.908Z,9.044799805
2023-04-26T06:23:51.990Z,9.075012207
2023-04-26T06:24:53.780Z,9.11529541
2023-04-26T06:25:55.738Z,9.145507813
2023-04-26T06:27:28.725Z,9.125366211
2023-04-26T06:28:31.007Z,9.155578613
2023-04-26T06:29:32.836Z,9.185791016
2023-04-26T06:30:34.919Z,9.195861816
2023-04-26T06:31:36.718Z,9.195861816
2023-04-26T06:32:38.448Z,9.256286621
2023-04-26T06:33:40.773Z,9.296569824
2023-04-26T06:34:42.775Z,9.306640625
2023-04-26T06:35:44.855Z,9.316711426
2023-04-26T06:36:46.891Z,9.336853027
2023-04-26T06:37:48.751Z,9.36706543
2023-04-26T06:38:51.700Z,9.36706543
2023-04-26T06:39:54.065Z,9.37713623
2023-04-26T06:40:56.154Z,9.417419434
2023-04-26T06:42:28.114Z,9.437561035
2023-04-26T06:43:29.705Z,9.437561035
2023-04-26T06:44:31.792Z,9.49798584
2023-04-26T06:45:33.741Z,9.548339844
2023-04-26T06:46:35.123Z,9.558410645
2023-04-26T06:47:36.639Z,9.588623047
2023-04-26T06:48:38.257Z,9.588623047
2023-04-26T06:49:40.244Z,9.618835449
2023-04-26T06:50:42.198Z,9.669189453
2023-04-26T06:51:43.961Z,9.669189453
2023-04-26T06:52:46.160Z,9.699401855
2023-04-26T06:53:47.820Z,9.679260254
2023-04-26T06:54:56.557Z,9.699401855
2023-04-26T06:55:51.204Z,9.729614258
2023-04-26T06:56:52.677Z,9.699401855
2023-04-26T06:57:54.152Z,9.729614258
2023-04-26T06:58:56.242Z,9.800109863
2023-04-26T07:00:28.795Z,9.830322266
2023-04-26T07:01:30.692Z,9.89074707
2023-04-26T07:02:32.329Z,9.910888672
2023-04-26T07:03:33.717Z,9.920959473
2023-04-26T07:04:35.450Z,9.961242676
2023-04-26T07:05:36.639Z,10.01159668
2023-04-26T07:06:38.178Z,10.01159668
2023-04-26T07:07:40.068Z,9.981384277
2023-04-26T07:08:41.626Z,9.951171875
2023-04-26T07:09:43.241Z,9.931030273
2023-04-26T07:10:45.159Z,9.951171875
2023-04-26T07:11:46.614Z,10.01159668
2023-04-26T07:12:47.365Z,10.09216309
2023-04-26T07:13:48.322Z,10.13244629
2023-04-26T07:14:49.690Z,10.13244629
2023-04-26T07:15:51.189Z,10.17272949
2023-04-26T07:16:52.650Z,10.2230835
2023-04-26T07:17:54.193Z,10.2633667
2023-04-26T07:18:55.703Z,10.36407471
2023-04-26T07:20:27.637Z,10.38421631
2023-04-26T07:21:28.507Z,10.43457031
2023-04-26T07:22:30.052Z,10.44464111
2023-04-26T07:23:31.723Z,10.44464111
2023-04-26T07:24:33.372Z,10.47485352
2023-04-26T07:25:35.526Z,10.49499512
2023-04-26T07:26:36.359Z,10.53527832
2023-04-26T07:27:37.253Z,10.54534912
2023-04-26T07:28:39.194Z,10.56549072
2023-04-26T07:29:40.671Z,10.59570313
2023-04-26T07:30:42.723Z,10.64605713
2023-04-26T07:31:44.645Z,10.68634033
2023-04-26T07:32:46.235Z,10.69641113
2023-04-26T07:33:47.839Z,10.69641113
2023-04-26T07:34:49.729Z,10.71655273
2023-04-26T07:35:51.722Z,10.72662354
2023-04-26T07:36:53.134Z,10.74676514
2023-04-26T07:37:54.648Z,10.80718994
2023-04-26T07:38:56.701Z,10.83740234
2023-04-26T07:40:29.255Z,10.87768555
2023-04-26T07:41:31.142Z,10.90789795
2023-04-26T07:42:32.784Z,10.92803955
2023-04-26T07:43:34.728Z,10.93811035
2023-04-26T07:44:36.218Z,10.92803955
2023-04-26T07:45:38.283Z,10.90789795
2023-04-26T07:46:40.203Z,10.92803955
2023-04-26T07:47:42.291Z,10.92803955
2023-04-26T07:48:44.225Z,10.92803955
2023-04-26T07:49:47.835Z,10.92803955
2023-04-26T07:50:47.784Z,10.93811035
2023-04-26T07:51:50.180Z,10.93811035
2023-04-26T07:52:51.722Z,10.92803955
2023-04-26T07:53:53.079Z,10.89782715
2023-04-26T07:54:54.943Z,10.90789795
2023-04-26T07:56:27.779Z,10.90789795
2023-04-26T07:57:29.635Z,10.90789795
2023-04-26T07:58:31.270Z,10.93811035
2023-04-26T07:59:33.288Z,10.94818115
2023-04-26T08:00:35.268Z,10.98846436
2023-04-26T08:01:37.320Z,10.98846436
2023-04-26T08:02:45.250Z,10.97839355
2023-04-26T08:03:40.921Z,10.97839355
2023-04-26T08:04:42.453Z,10.98846436
2023-04-26T08:05:44.501Z,10.98846436
2023-04-26T08:06:46.277Z,10.97839355
2023-04-26T08:07:48.877Z,10.97839355
2023-04-26T08:08:50.182Z,10.97839355
2023-04-26T08:09:51.831Z,10.97839355
2023-04-26T08:10:53.731Z,10.94818115
2023-04-26T08:11:55.153Z,10.94818115
2023-04-26T08:13:29.292Z,10.97839355
2023-04-26T08:14:28.748Z,10.98846436
2023-04-26T08:15:30.208Z,10.98846436
2023-04-26T08:16:31.812Z,11.00860596
2023-04-26T08:17:33.717Z,11.02874756
2023-04-26T08:18:35.262Z,11.05895996
2023-04-26T08:19:37.298Z,11.07910156
2023-04-26T08:20:39.216Z,11.05895996
2023-04-26T08:21:41.201Z,11.07910156
2023-04-26T08:22:42.647Z,11.07910156
2023-04-26T08:23:44.340Z,11.04888916
2023-04-26T08:24:46.235Z,11.04888916
2023-04-26T08:25:48.230Z,11.02874756
2023-04-26T08:26:49.295Z,11.07910156
2023-04-26T08:27:51.157Z,11.07910156
2023-04-26T08:28:52.695Z,11.07910156
2023-04-26T08:29:55.267Z,11.07910156
2023-04-26T08:31:27.759Z,11.08917236
2023-04-26T08:32:29.202Z,11.11938477
2023-04-26T08:33:30.583Z,11.12945557
2023-04-26T08:34:32.373Z,11.12945557
2023-04-26T08:35:34.248Z,11.11938477
2023-04-26T08:36:36.285Z,11.10931396
2023-04-26T08:37:38.252Z,11.11938477
2023-04-26T08:38:40.084Z,11.10931396
2023-04-26T08:39:41.708Z,11.10931396
2023-04-26T08:40:43.320Z,11.10931396
2023-04-26T08:41:45.717Z,11.10931396
2023-04-26T08:42:47.662Z,11.07910156
2023-04-26T08:43:49.143Z,11.05895996
2023-04-26T08:44:50.724Z,11.07910156
2023-04-26T08:45:52.748Z,11.10931396
2023-04-26T08:46:54.206Z,11.07910156
2023-04-26T08:48:26.646Z,11.01867676
2023-04-26T08:49:28.231Z,10.94818115
2023-04-26T08:50:30.492Z,10.92803955
2023-04-26T08:51:32.345Z,10.89782715
2023-04-26T08:52:34.209Z,10.90789795
2023-04-26T08:53:35.708Z,10.93811035
2023-04-26T08:54:37.180Z,10.94818115
2023-04-26T08:55:39.411Z,10.98846436
2023-04-26T08:56:41.251Z,11.00860596
2023-04-26T08:57:43.196Z,11.02874756
2023-04-26T08:58:45.183Z,11.05895996
2023-04-26T08:59:46.716Z,11.05895996
2023-04-26T09:00:48.247Z,11.10931396
2023-04-26T09:01:49.829Z,11.11938477
2023-04-26T09:02:51.946Z,11.16973877
2023-04-26T09:03:53.941Z,11.19995117
2023-04-26T09:04:56.314Z,11.26037598
2023-04-26T09:06:28.734Z,11.21002197
2023-04-26T09:07:30.187Z,11.24023438
2023-04-26T09:08:31.619Z,11.19995117
2023-04-26T09:09:33.106Z,11.19995117
2023-04-26T09:10:34.825Z,11.21002197
2023-04-26T09:11:36.733Z,11.15966797
2023-04-26T09:12:38.229Z,11.15966797
2023-04-26T09:13:39.615Z,11.16973877
2023-04-26T09:14:41.144Z,11.18988037
2023-04-26T09:15:42.810Z,11.18988037
2023-04-26T09:16:45.785Z,11.19995117
2023-04-26T09:17:47.274Z,11.21002197
2023-04-26T09:18:49.252Z,11.26037598
2023-04-26T09:19:50.634Z,11.27044678
2023-04-26T09:20:52.257Z,11.31072998
2023-04-26T09:21:53.325Z,11.38122559
2023-04-26T09:23:27.158Z,11.41143799
2023-04-26T09:24:28.579Z,11.45172119
2023-04-26T09:25:30.161Z,11.512146
2023-04-26T09:26:31.716Z,11.5423584
2023-04-26T09:27:33.716Z,11.5625
2023-04-26T09:28:35.610Z,11.6027832
2023-04-26T09:29:37.171Z,11.64306641
2023-04-26T09:30:38.835Z,11.67327881
2023-04-26T09:31:40.953Z,11.67327881
2023-04-26T09:32:42.753Z,11.67327881
2023-04-26T09:33:44.692Z,11.72363281
2023-04-26T09:34:46.198Z,11.69342041
2023-04-26T09:35:47.713Z,11.70349121
2023-04-26T09:36:49.711Z,11.70349121
2023-04-26T09:37:58.296Z,11.69342041
2023-04-26T09:38:52.912Z,11.69342041
2023-04-26T09:39:54.162Z,11.74377441
2023-04-26T09:41:26.202Z,11.77398682
2023-04-26T09:42:27.716Z,11.81427002
2023-04-26T09:43:29.286Z,11.82434082
2023-04-26T09:44:30.534Z,11.85455322
2023-04-26T09:45:32.273Z,11.85455322
2023-04-26T09:46:34.272Z,11.87469482
2023-04-26T09:47:36.214Z,11.92504883
2023-04-26T09:48:37.758Z,11.93511963
2023-04-26T09:49:39.635Z,11.96533203
2023-04-26T09:50:41.121Z,11.95526123
2023-04-26T09:51:42.799Z,11.90490723
2023-04-26T09:52:44.751Z,11.81427002
2023-04-26T09:53:47.710Z,11.84448242
2023-04-26T09:54:49.155Z,11.87469482
2023-04-26T09:55:50.801Z,11.92504883
2023-04-26T09:56:52.710Z,11.97540283
2023-04-26T09:57:54.708Z,12.06604004
2023-04-26T09:59:27.186Z,12.10632324
2023-04-26T10:00:28.611Z,12.12646484
2023-04-26T10:01:30.656Z,12.14660645
2023-04-26T10:02:32.321Z,12.18688965
2023-04-26T10:03:34.348Z,12.20703125
2023-04-26T10:04:36.002Z,12.21710205
2023-04-26T10:05:37.641Z,12.24731445
2023-04-26T10:06:39.340Z,12.25738525
2023-04-26T10:07:41.213Z,12.28759766
2023-04-26T10:08:43.453Z,12.32788086
2023-04-26T10:09:45.679Z,12.30773926
2023-04-26T10:10:46.678Z,12.30773926
2023-04-26T10:11:47.659Z,12.32788086
2023-04-26T10:12:49.305Z,12.30773926
2023-04-26T10:13:51.200Z,12.33795166
2023-04-26T10:14:53.220Z,12.35809326
2023-04-26T10:15:55.158Z,12.37823486
2023-04-26T10:17:27.272Z,12.40844727
2023-04-26T10:18:29.384Z,12.43865967
2023-04-26T10:19:31.126Z,12.43865967
2023-04-26T10:20:32.641Z,12.47894287
2023-04-26T10:21:34.131Z,12.45880127
2023-04-26T10:22:35.684Z,12.47894287
2023-04-26T10:23:37.166Z,12.47894287
2023-04-26T10:24:38.703Z,12.50915527
2023-04-26T10:25:40.619Z,12.50915527
2023-04-26T10:26:42.143Z,12.55950928
2023-04-26T10:27:43.957Z,12.60986328
2023-04-26T10:28:45.705Z,12.66021729
2023-04-26T10:29:47.010Z,12.69042969
2023-04-26T10:30:48.541Z,12.71057129
2023-04-26T10:31:50.170Z,12.71057129
2023-04-26T10:32:51.684Z,12.74078369
2023-04-26T10:33:53.190Z,12.69042969
2023-04-26T10:35:25.621Z,12.67028809
2023-04-26T10:36:27.119Z,12.67028809
2023-04-26T10:37:28.688Z,12.69042969
2023-04-26T10:38:30.179Z,12.71057129
2023-04-26T10:39:31.705Z,12.73071289
2023-04-26T10:40:33.167Z,12.76092529
2023-04-26T10:41:34.124Z,12.7911377
2023-04-26T10:42:35.646Z,12.8112793
2023-04-26T10:43:37.134Z,12.7911377
2023-04-26T10:44:38.938Z,12.8012085
2023-04-26T10:45:40.799Z,12.8515625
2023-04-26T10:46:42.326Z,12.8817749
2023-04-26T10:47:44.348Z,12.9119873
2023-04-26T10:48:47.219Z,12.94219971
2023-04-26T10:49:49.307Z,12.95227051
2023-04-26T10:50:51.161Z,12.92205811
2023-04-26T10:51:52.884Z,12.94219971
2023-04-26T10:52:55.284Z,12.96234131
2023-04-26T10:54:27.185Z,12.98248291
2023-04-26T10:55:28.650Z,12.99255371
2023-04-26T10:56:30.173Z,12.98248291
2023-04-26T10:57:31.821Z,13.03283691
2023-04-26T10:58:33.790Z,13.03283691
2023-04-26T10:59:47.246Z,13.04290771
2023-04-26T11:00:37.676Z,13.04290771
2023-04-26T11:01:39.462Z,13.06304932
2023-04-26T11:02:41.489Z,13.09326172
2023-04-26T11:03:43.358Z,13.10333252
2023-04-26T11:04:45.341Z,13.13354492
2023-04-26T11:05:46.661Z,13.12347412
2023-04-26T11:06:48.242Z,13.16375732
2023-04-26T11:07:50.209Z,13.16375732
2023-04-26T11:08:52.465Z,13.17382813
2023-04-26T11:09:53.730Z,13.19396973
2023-04-26T11:11:25.592Z,13.21411133
2023-04-26T11:12:27.268Z,13.24432373
2023-04-26T11:13:29.216Z,13.25439453
2023-04-26T11:14:30.758Z,13.24432373
2023-04-26T11:15:32.174Z,13.19396973
2023-04-26T11:16:33.656Z,13.14361572
2023-04-26T11:17:35.187Z,13.12347412
2023-04-26T11:18:36.769Z,13.13354492
2023-04-26T11:19:38.747Z,13.17382813
2023-04-26T11:20:40.714Z,13.22418213
2023-04-26T11:21:42.130Z,13.28460693
2023-04-26T11:22:44.037Z,13.32489014
2023-04-26T11:23:45.861Z,13.34503174
2023-04-26T11:24:47.697Z,13.38531494
2023-04-26T11:25:49.148Z,13.43566895